createdAt,value
2019-06-08T00:01:55.688Z,22.62
2019-06-08T00:04:28.774Z,22.56
2019-06-08T00:07:01.773Z,22.56
2019-06-08T00:09:34.746Z,22.52
2019-06-08T00:12:07.948Z,22.49
2019-06-08T00:14:40.962Z,22.50
2019-06-08T00:17:30.739Z,22.51
2019-06-08T00:19:48.748Z,22.49
2019-06-08T00:22:22.041Z,22.46
2019-06-08T00:24:55.336Z,22.41
2019-06-08T00:27:28.626Z,22.37
2019-06-08T00:30:02.226Z,22.31
2019-06-08T00:32:35.526Z,22.28
2019-06-08T00:35:09.344Z,22.32
2019-06-08T00:37:42.626Z,22.33
2019-06-08T00:40:16.849Z,22.31
2019-06-08T00:42:49.828Z,22.34
2019-06-08T00:45:23.613Z,22.29
2019-06-08T00:47:56.703Z,22.28
2019-06-08T00:50:29.633Z,22.20
2019-06-08T00:53:02.612Z,22.16
2019-06-08T00:55:36.011Z,22.14
2019-06-08T00:58:09.313Z,22.09
2019-06-08T01:00:42.604Z,22.08
2019-06-08T01:03:17.601Z,22.08
2019-06-08T01:05:51.041Z,22.12
2019-06-08T01:08:25.450Z,22.12
2019-06-08T01:10:58.551Z,22.10
2019-06-08T01:13:31.639Z,22.05
2019-06-08T01:16:04.734Z,22.02
2019-06-08T01:18:37.621Z,21.91
2019-06-08T01:21:10.742Z,21.80
2019-06-08T01:23:44.213Z,21.82
2019-06-08T01:26:17.901Z,21.88
2019-06-08T01:28:50.685Z,21.95
2019-06-08T01:31:24.423Z,21.99
2019-06-08T01:33:57.585Z,22.01
2019-06-08T01:36:31.316Z,22.05
2019-06-08T01:39:06.021Z,22.02
2019-06-08T01:41:39.214Z,22.02
2019-06-08T01:44:12.311Z,22.08
2019-06-08T01:46:45.720Z,22.11
2019-06-08T01:49:19.015Z,22.12
2019-06-08T01:51:52.634Z,22.13
2019-06-08T01:54:26.923Z,22.14
2019-06-08T01:57:00.321Z,22.12
2019-06-08T01:59:34.752Z,22.13
2019-06-08T02:02:07.836Z,22.15
2019-06-08T02:04:40.917Z,22.19
2019-06-08T02:07:14.341Z,22.17
2019-06-08T02:09:47.516Z,22.16
2019-06-08T02:12:20.698Z,22.12
2019-06-08T02:14:53.791Z,22.07
2019-06-08T02:17:27.345Z,22.08
2019-06-08T02:20:00.279Z,22.09
2019-06-08T02:22:33.580Z,22.09
2019-06-08T02:25:07.888Z,22.11
2019-06-08T02:27:41.029Z,22.09
2019-06-08T02:30:17.352Z,22.07
2019-06-08T02:32:50.550Z,22.01
2019-06-08T02:35:23.937Z,21.96
2019-06-08T02:37:57.433Z,21.82
2019-06-08T02:40:32.473Z,21.72
2019-06-08T02:43:05.011Z,21.58
2019-06-08T02:45:40.211Z,21.57
2019-06-08T02:48:13.278Z,21.53
2019-06-08T02:50:55.487Z,21.47
2019-06-08T02:53:29.423Z,21.44
2019-06-08T02:56:03.514Z,21.49
2019-06-08T02:58:39.043Z,21.58
2019-06-08T03:01:11.707Z,21.64
2019-06-08T03:03:44.815Z,21.71
2019-06-08T03:06:17.806Z,21.77
2019-06-08T03:08:51.348Z,21.78
2019-06-08T03:11:24.311Z,21.88
2019-06-08T03:13:59.138Z,21.99
2019-06-08T03:16:33.329Z,22.07
2019-06-08T03:19:20.719Z,22.09
2019-06-08T03:21:42.445Z,21.99
2019-06-08T03:24:18.260Z,21.87
2019-06-08T03:26:51.546Z,21.85
2019-06-08T03:29:24.642Z,21.87
2019-06-08T03:31:58.769Z,21.97
2019-06-08T03:34:34.714Z,21.91
2019-06-08T03:37:06.671Z,21.86
2019-06-08T03:39:41.384Z,21.86
2019-06-08T03:42:15.005Z,21.98
2019-06-08T03:44:48.400Z,22.12
2019-06-08T03:47:21.691Z,22.19
2019-06-08T03:49:57.519Z,22.19
2019-06-08T03:52:30.019Z,22.15
2019-06-08T03:55:03.489Z,22.24
2019-06-08T03:57:38.044Z,22.15
2019-06-08T04:00:13.329Z,22.11
2019-06-08T04:02:46.743Z,22.20
2019-06-08T04:05:19.934Z,22.37
2019-06-08T04:07:53.162Z,22.50
2019-06-08T04:10:26.560Z,22.65
2019-06-08T04:12:59.443Z,22.82
2019-06-08T04:15:32.543Z,22.95
2019-06-08T04:18:05.741Z,23.03
2019-06-08T04:20:40.259Z,23.08
2019-06-08T04:23:13.750Z,23.15
2019-06-08T04:25:47.781Z,23.14
2019-06-08T04:28:20.746Z,23.22
2019-06-08T04:30:54.048Z,23.13
2019-06-08T04:33:27.133Z,23.22
2019-06-08T04:36:00.324Z,23.14
2019-06-08T04:38:33.719Z,23.02
2019-06-08T04:41:06.913Z,23.09
2019-06-08T04:43:42.624Z,23.13
2019-06-08T04:46:16.779Z,23.26
2019-06-08T04:48:50.314Z,23.33
2019-06-08T04:51:23.486Z,23.42
2019-06-08T04:53:56.760Z,23.30
2019-06-08T04:56:29.965Z,23.31
2019-06-08T04:59:02.934Z,23.49
2019-06-08T05:01:36.250Z,23.69
2019-06-08T05:04:09.447Z,23.76
2019-06-08T05:06:42.973Z,23.84
2019-06-08T05:09:16.341Z,24.05
2019-06-08T05:11:49.894Z,24.31
2019-06-08T05:14:23.157Z,24.55
2019-06-08T05:16:56.228Z,24.67
2019-06-08T05:19:29.469Z,24.86
2019-06-08T05:22:02.418Z,25.04
2019-06-08T05:24:35.221Z,25.00
2019-06-08T05:27:08.515Z,24.88
2019-06-08T05:29:41.715Z,24.96
2019-06-08T05:32:15.218Z,24.94
2019-06-08T05:34:49.716Z,24.92
2019-06-08T05:37:22.757Z,24.85
2019-06-08T05:39:56.099Z,24.88
2019-06-08T05:42:29.105Z,24.80
2019-06-08T05:45:02.422Z,24.83
2019-06-08T05:47:35.600Z,25.10
2019-06-08T05:50:11.450Z,25.41
2019-06-08T05:52:45.811Z,25.42
2019-06-08T05:55:18.749Z,25.34
2019-06-08T05:57:52.168Z,25.41
2019-06-08T06:00:25.053Z,25.50
2019-06-08T06:02:58.157Z,25.56
2019-06-08T06:05:31.133Z,25.73
2019-06-08T06:08:16.137Z,25.87
2019-06-08T06:10:38.859Z,25.89
2019-06-08T06:13:12.167Z,26.11
2019-06-08T06:15:47.215Z,26.08
2019-06-08T06:18:20.147Z,26.21
2019-06-08T06:21:07.414Z,26.46
2019-06-08T06:23:28.303Z,26.62
2019-06-08T06:26:01.098Z,26.58
2019-06-08T06:28:34.588Z,26.51
2019-06-08T06:31:07.888Z,26.72
2019-06-08T06:33:41.987Z,26.96
2019-06-08T06:36:15.288Z,27.11
2019-06-08T06:38:50.101Z,26.96
2019-06-08T06:41:23.208Z,26.73
2019-06-08T06:43:56.193Z,26.80
2019-06-08T06:46:29.143Z,26.97
2019-06-08T06:49:02.630Z,26.91
2019-06-08T06:51:35.833Z,27.01
2019-06-08T06:54:09.531Z,27.23
2019-06-08T06:56:43.101Z,27.38
2019-06-08T06:59:16.257Z,27.52
2019-06-08T07:01:54.109Z,27.64
2019-06-08T07:04:24.254Z,27.68
2019-06-08T07:06:58.764Z,27.29
2019-06-08T07:09:32.102Z,27.16
2019-06-08T07:12:05.504Z,27.38
2019-06-08T07:14:38.532Z,27.48
2019-06-08T07:17:11.568Z,27.30
2019-06-08T07:19:44.458Z,27.21
2019-06-08T07:22:17.394Z,27.33
2019-06-08T07:24:50.807Z,27.47
2019-06-08T07:27:24.092Z,27.36
2019-06-08T07:29:57.489Z,27.22
2019-06-08T07:32:30.579Z,27.43
2019-06-08T07:35:04.618Z,27.37
2019-06-08T07:37:37.593Z,27.52
2019-06-08T07:40:10.887Z,27.75
2019-06-08T07:42:43.987Z,27.88
2019-06-08T07:45:17.067Z,27.76
2019-06-08T07:47:50.164Z,27.82
2019-06-08T07:50:23.495Z,27.79
2019-06-08T07:52:56.848Z,27.87
2019-06-08T07:55:30.142Z,28.03
2019-06-08T07:58:03.636Z,28.20
2019-06-08T08:00:36.936Z,28.05
2019-06-08T08:03:09.820Z,28.06
2019-06-08T08:05:43.440Z,28.04
2019-06-08T08:08:16.529Z,27.93
2019-06-08T08:10:50.365Z,27.86
2019-06-08T08:13:24.462Z,27.84
2019-06-08T08:15:59.374Z,28.05
2019-06-08T08:18:33.905Z,28.14
2019-06-08T08:21:18.818Z,28.07
2019-06-08T08:23:41.625Z,28.27
2019-06-08T08:26:14.820Z,28.38
2019-06-08T08:28:49.994Z,28.39
2019-06-08T08:31:23.971Z,28.31
2019-06-08T08:34:03.059Z,28.39
2019-06-08T08:36:33.343Z,28.51
2019-06-08T08:39:08.791Z,28.45
2019-06-08T08:41:42.056Z,28.34
2019-06-08T08:44:17.434Z,28.48
2019-06-08T08:46:51.402Z,28.51
2019-06-08T08:49:27.969Z,28.61
2019-06-08T08:52:01.856Z,28.62
2019-06-08T08:54:34.892Z,28.66
2019-06-08T08:57:08.456Z,28.69
2019-06-08T08:59:41.705Z,28.78
2019-06-08T09:02:14.734Z,28.79
2019-06-08T09:04:48.216Z,28.91
2019-06-08T09:07:21.303Z,28.93
2019-06-08T09:09:56.153Z,28.93
2019-06-08T09:12:29.324Z,28.94
2019-06-08T09:15:04.018Z,29.02
2019-06-08T09:17:38.769Z,29.01
2019-06-08T09:20:15.420Z,29.05
2019-06-08T09:22:53.710Z,29.19
2019-06-08T09:25:21.635Z,29.22
2019-06-08T09:27:56.389Z,29.15
2019-06-08T09:30:29.480Z,29.11
2019-06-08T09:33:04.195Z,29.24
2019-06-08T09:35:38.319Z,29.32
2019-06-08T09:38:11.835Z,29.21
2019-06-08T09:40:45.019Z,29.16
2019-06-08T09:43:19.029Z,29.10
2019-06-08T09:45:53.686Z,29.07
2019-06-08T09:48:28.870Z,29.15
2019-06-08T09:51:03.927Z,29.19
2019-06-08T09:53:40.468Z,29.22
2019-06-08T09:56:11.027Z,29.22
2019-06-08T09:58:44.026Z,29.36
2019-06-08T10:01:18.444Z,29.44
2019-06-08T10:03:51.650Z,29.57
2019-06-08T10:06:24.749Z,29.67
2019-06-08T10:08:58.546Z,29.67
2019-06-08T10:11:31.858Z,29.69
2019-06-08T10:14:09.236Z,29.63
2019-06-08T10:16:39.905Z,29.63
2019-06-08T10:19:13.375Z,29.67
2019-06-08T10:21:48.174Z,29.75
2019-06-08T10:24:21.298Z,29.84
2019-06-08T10:26:55.179Z,29.78
2019-06-08T10:29:28.529Z,29.84
2019-06-08T10:32:01.933Z,29.86
2019-06-08T10:34:34.987Z,29.97
2019-06-08T10:37:12.852Z,30.01
2019-06-08T10:39:42.817Z,30.07
2019-06-08T10:42:18.326Z,30.00
2019-06-08T10:44:51.523Z,30.00
2019-06-08T10:47:29.544Z,30.01
2019-06-08T10:50:06.382Z,30.00
2019-06-08T10:52:34.582Z,30.00
2019-06-08T10:55:11.599Z,29.94
2019-06-08T10:57:43.443Z,30.01
2019-06-08T11:00:24.558Z,30.03
2019-06-08T11:03:01.590Z,30.04
2019-06-08T11:05:33.379Z,30.10
2019-06-08T11:08:13.504Z,30.07
2019-06-08T11:10:41.484Z,29.92
2019-06-08T11:13:15.316Z,29.95
2019-06-08T11:15:49.200Z,29.80
2019-06-08T11:18:22.183Z,29.83
2019-06-08T11:20:57.970Z,29.88
2019-06-08T11:23:29.906Z,29.99
2019-06-08T11:26:05.410Z,30.13
2019-06-08T11:28:38.342Z,30.26
2019-06-08T11:31:15.779Z,30.40
2019-06-08T11:33:48.825Z,30.59
2019-06-08T11:36:21.013Z,30.79
2019-06-08T11:38:54.191Z,30.62
2019-06-08T11:41:27.906Z,30.69
2019-06-08T11:44:01.990Z,30.74
2019-06-08T11:46:38.111Z,30.73
2019-06-08T11:49:13.471Z,30.54
2019-06-08T11:51:47.703Z,30.24
2019-06-08T11:54:33.158Z,30.13
2019-06-08T11:56:57.412Z,30.28
2019-06-08T11:59:30.041Z,30.42
2019-06-08T12:02:03.552Z,30.43
2019-06-08T12:04:38.418Z,30.43
2019-06-08T12:07:13.929Z,30.52
2019-06-08T12:09:49.930Z,30.57
2019-06-08T12:12:21.805Z,30.58
2019-06-08T12:14:55.122Z,30.68
2019-06-08T12:17:28.410Z,30.78
2019-06-08T12:20:03.365Z,30.89
2019-06-08T12:22:37.680Z,30.86
2019-06-08T12:25:12.230Z,30.71
2019-06-08T12:27:45.295Z,30.77
2019-06-08T12:30:25.594Z,30.75
2019-06-08T12:32:52.808Z,30.65
2019-06-08T12:35:28.253Z,30.65
2019-06-08T12:38:01.157Z,30.65
2019-06-08T12:40:34.349Z,30.67
2019-06-08T12:43:09.972Z,30.68
2019-06-08T12:45:42.288Z,30.68
2019-06-08T12:48:18.407Z,30.67
2019-06-08T12:50:50.203Z,30.75
2019-06-08T12:53:23.397Z,30.85
2019-06-08T12:55:57.894Z,31.07
2019-06-08T12:58:31.116Z,31.24
2019-06-08T13:01:04.308Z,31.39
2019-06-08T13:03:37.843Z,31.37
2019-06-08T13:06:12.496Z,31.24
2019-06-08T13:08:47.763Z,30.95
2019-06-08T13:11:21.561Z,30.77
2019-06-08T13:13:54.922Z,30.66
2019-06-08T13:16:28.471Z,30.50
2019-06-08T13:19:01.520Z,30.49
2019-06-08T13:21:35.747Z,30.55
2019-06-08T13:24:10.189Z,30.65
2019-06-08T13:26:43.815Z,30.58
2019-06-08T13:29:19.803Z,30.53
2019-06-08T13:31:51.358Z,30.52
2019-06-08T13:34:24.769Z,30.51
2019-06-08T13:36:57.763Z,30.49
2019-06-08T13:39:31.231Z,30.47
2019-06-08T13:42:04.316Z,30.37
2019-06-08T13:44:37.829Z,30.33
2019-06-08T13:47:12.567Z,30.30
2019-06-08T13:49:47.985Z,30.38
2019-06-08T13:52:23.603Z,30.51
2019-06-08T13:54:58.203Z,30.61
2019-06-08T13:57:30.656Z,30.62
2019-06-08T14:00:08.021Z,30.65
2019-06-08T14:02:41.342Z,30.58
2019-06-08T14:05:25.705Z,30.51
2019-06-08T14:07:54.718Z,30.58
2019-06-08T14:10:38.564Z,30.53
2019-06-08T14:13:11.944Z,30.49
2019-06-08T14:15:45.554Z,30.39
2019-06-08T14:18:23.350Z,30.30
2019-06-08T14:20:54.612Z,30.22
2019-06-08T14:23:27.796Z,30.25
2019-06-08T14:26:01.066Z,30.26
2019-06-08T14:28:34.376Z,30.27
2019-06-08T14:31:10.934Z,30.26
2019-06-08T14:33:43.261Z,30.25
2019-06-08T14:36:19.724Z,30.28
2019-06-08T14:38:51.168Z,30.31
2019-06-08T14:41:24.624Z,30.32
2019-06-08T14:43:58.570Z,30.38
2019-06-08T14:46:31.501Z,30.40
2019-06-08T14:49:04.989Z,30.43
2019-06-08T14:51:50.778Z,30.47
2019-06-08T14:54:27.217Z,30.49
2019-06-08T14:56:58.610Z,30.48
2019-06-08T14:59:31.869Z,30.48
2019-06-08T15:02:07.468Z,30.47
2019-06-08T15:04:40.125Z,30.48
2019-06-08T15:07:13.207Z,30.44
2019-06-08T15:09:47.994Z,30.42
2019-06-08T15:12:21.461Z,30.32
2019-06-08T15:14:58.043Z,30.29
2019-06-08T15:17:32.172Z,30.18
2019-06-08T15:20:08.855Z,30.13
2019-06-08T15:22:42.963Z,30.05
2019-06-08T15:25:18.386Z,29.90
2019-06-08T15:27:50.760Z,29.92
2019-06-08T15:30:25.118Z,29.90
2019-06-08T15:33:00.728Z,29.83
2019-06-08T15:35:33.921Z,29.77
2019-06-08T15:38:08.456Z,29.69
2019-06-08T15:40:41.543Z,29.59
2019-06-08T15:43:14.830Z,29.44
2019-06-08T15:45:51.204Z,29.40
2019-06-08T15:48:22.764Z,29.36
2019-06-08T15:50:58.459Z,29.27
2019-06-08T15:53:32.385Z,29.22
2019-06-08T15:56:05.226Z,29.14
2019-06-08T15:58:40.503Z,29.01
2019-06-08T16:01:14.798Z,28.95
2019-06-08T16:03:47.946Z,28.94
2019-06-08T16:06:21.143Z,28.91
2019-06-08T16:08:54.432Z,28.84
2019-06-08T16:11:28.201Z,28.86
2019-06-08T16:14:01.122Z,28.85
2019-06-08T16:16:35.225Z,28.86
2019-06-08T16:19:08.359Z,28.87
2019-06-08T16:21:43.194Z,28.78
2019-06-08T16:24:16.589Z,28.73
2019-06-08T16:26:53.500Z,28.74
2019-06-08T16:29:25.204Z,28.68
2019-06-08T16:31:58.467Z,28.66
2019-06-08T16:34:31.765Z,28.61
2019-06-08T16:37:05.269Z,28.60
2019-06-08T16:39:39.885Z,28.56
2019-06-08T16:42:12.978Z,28.59
2019-06-08T16:44:46.073Z,28.53
2019-06-08T16:47:19.384Z,28.55
2019-06-08T16:49:52.265Z,28.54
2019-06-08T16:52:25.152Z,28.47
2019-06-08T16:54:58.419Z,28.34
2019-06-08T16:57:36.051Z,28.27
2019-06-08T17:02:42.848Z,28.15
2019-06-08T17:05:16.051Z,28.03
2019-06-08T17:07:49.137Z,27.96
2019-06-08T17:10:22.367Z,27.85
2019-06-08T17:12:55.909Z,27.79
2019-06-08T17:15:30.172Z,27.73
2019-06-08T17:18:03.245Z,27.71
2019-06-08T17:20:36.402Z,27.66
2019-06-08T17:23:09.793Z,27.67
2019-06-08T17:25:42.804Z,27.69
2019-06-08T17:28:15.994Z,27.69
2019-06-08T17:30:49.192Z,27.61
2019-06-08T17:33:22.494Z,27.60
2019-06-08T17:35:55.456Z,27.53
2019-06-08T17:38:28.894Z,27.44
2019-06-08T17:41:01.974Z,27.42
2019-06-08T17:43:36.085Z,27.33
2019-06-08T17:46:09.172Z,27.26
2019-06-08T17:48:45.232Z,27.23
2019-06-08T17:51:18.703Z,27.16
2019-06-08T17:53:52.105Z,27.14
2019-06-08T17:56:25.030Z,27.14
2019-06-08T17:58:58.115Z,27.11
2019-06-08T18:01:31.411Z,27.07
2019-06-08T18:04:04.600Z,26.99
2019-06-08T18:06:39.857Z,26.96
2019-06-08T18:09:13.062Z,26.99
2019-06-08T18:11:48.029Z,26.96
2019-06-08T18:14:21.106Z,26.96
2019-06-08T18:16:54.369Z,26.95
2019-06-08T18:19:30.229Z,26.90
2019-06-08T18:22:06.183Z,26.82
2019-06-08T18:24:40.901Z,26.76
2019-06-08T18:27:13.001Z,26.76
2019-06-08T18:29:48.658Z,26.64
2019-06-08T18:32:22.084Z,26.61
2019-06-08T18:34:57.134Z,26.52
2019-06-08T18:37:29.904Z,26.42
2019-06-08T18:40:04.245Z,26.42
2019-06-08T18:42:39.575Z,26.44
2019-06-08T18:45:12.039Z,26.42
2019-06-08T18:47:45.514Z,26.42
2019-06-08T18:50:18.927Z,26.45
2019-06-08T18:52:52.231Z,26.43
2019-06-08T18:55:27.526Z,26.42
2019-06-08T18:57:59.747Z,26.40
2019-06-08T19:00:40.033Z,26.37
2019-06-08T19:03:12.482Z,26.32
2019-06-08T19:05:49.788Z,26.27
2019-06-08T19:08:20.709Z,26.23
2019-06-08T19:10:53.727Z,26.09
2019-06-08T19:13:27.195Z,26.10
2019-06-08T19:16:00.207Z,26.08
2019-06-08T19:18:33.195Z,26.01
2019-06-08T19:21:08.030Z,25.97
2019-06-08T19:23:43.294Z,25.86
2019-06-08T19:26:17.196Z,25.83
2019-06-08T19:28:53.901Z,25.83
2019-06-08T19:31:27.493Z,25.84
2019-06-08T19:34:00.440Z,25.86
2019-06-08T19:36:35.178Z,25.83
2019-06-08T19:39:09.189Z,25.83
2019-06-08T19:41:42.567Z,25.83
2019-06-08T19:44:15.559Z,25.82
2019-06-08T19:46:52.326Z,25.77
2019-06-08T19:49:23.064Z,25.74
2019-06-08T19:51:59.452Z,25.57
2019-06-08T19:54:32.644Z,25.42
2019-06-08T19:57:07.811Z,25.44
2019-06-08T19:59:41.369Z,25.43
2019-06-08T20:02:14.574Z,25.32
2019-06-08T20:04:48.917Z,25.31
2019-06-08T20:07:22.090Z,25.23
2019-06-08T20:09:57.105Z,25.21
2019-06-08T20:12:33.713Z,25.11
2019-06-08T20:15:08.515Z,25.09
2019-06-08T20:17:41.770Z,24.84
2019-06-08T20:20:15.045Z,24.70
2019-06-08T20:22:50.452Z,24.78
2019-06-08T20:25:23.271Z,24.69
2019-06-08T20:27:58.725Z,24.74
2019-06-08T20:30:31.244Z,24.75
2019-06-08T20:33:04.277Z,24.56
2019-06-08T20:35:37.711Z,24.44
2019-06-08T20:38:10.871Z,24.49
2019-06-08T20:40:44.013Z,24.46
2019-06-08T20:43:17.743Z,24.33
2019-06-08T20:45:52.203Z,24.19
2019-06-08T20:48:27.500Z,24.07
2019-06-08T20:51:00.648Z,23.98
2019-06-08T20:53:33.527Z,24.01
2019-06-08T20:56:08.061Z,23.89
2019-06-08T20:58:41.141Z,23.92
2019-06-08T21:01:14.131Z,23.99
2019-06-08T21:03:48.588Z,24.05
2019-06-08T21:06:22.455Z,24.05
2019-06-08T21:08:57.608Z,23.96
2019-06-08T21:11:30.591Z,23.92
2019-06-08T21:14:03.875Z,23.85
2019-06-08T21:16:38.332Z,23.84
2019-06-08T21:19:11.283Z,23.80
2019-06-08T21:21:45.613Z,23.77
2019-06-08T21:24:19.025Z,23.77
2019-06-08T21:26:55.190Z,23.75
2019-06-08T21:29:34.205Z,23.72
2019-06-08T21:32:03.117Z,23.72
2019-06-08T21:34:38.085Z,23.69
2019-06-08T21:37:11.345Z,23.66
2019-06-08T21:39:44.321Z,23.65
2019-06-08T21:42:17.630Z,23.65
2019-06-08T21:44:53.110Z,23.69
2019-06-08T21:47:27.186Z,23.78
2019-06-08T21:50:00.539Z,23.72
2019-06-08T21:52:35.314Z,23.67
2019-06-08T21:55:08.714Z,23.65
2019-06-08T21:57:41.918Z,23.64
2019-06-08T22:00:38.155Z,23.61
2019-06-08T22:02:51.782Z,23.61
2019-06-08T22:05:27.120Z,23.69
2019-06-08T22:08:00.512Z,23.71
2019-06-08T22:10:33.578Z,23.75
2019-06-08T22:13:08.652Z,23.61
2019-06-08T22:15:41.904Z,23.50
2019-06-08T22:18:15.156Z,23.47
2019-06-08T22:20:48.333Z,23.44
2019-06-08T22:23:21.378Z,23.44
2019-06-08T22:25:59.226Z,23.44
2019-06-08T22:28:32.538Z,23.34
2019-06-08T22:31:07.881Z,23.30
2019-06-08T22:33:40.376Z,23.29
2019-06-08T22:36:15.020Z,23.25
2019-06-08T22:38:48.290Z,23.21
2019-06-08T22:41:21.368Z,23.22
2019-06-08T22:43:55.705Z,23.21
2019-06-08T22:46:28.888Z,23.17
2019-06-08T22:49:03.691Z,23.18
2019-06-08T22:51:38.339Z,23.18
2019-06-08T22:54:13.785Z,23.13
2019-06-08T22:56:47.812Z,23.15
2019-06-08T22:59:20.737Z,23.15
2019-06-08T23:01:55.937Z,23.07
2019-06-08T23:04:29.326Z,23.03
2019-06-08T23:07:04.540Z,23.04
2019-06-08T23:09:37.389Z,22.98
2019-06-08T23:12:10.424Z,23.06
2019-06-08T23:14:43.674Z,23.06
2019-06-08T23:17:17.866Z,23.02
2019-06-08T23:19:51.229Z,22.96
2019-06-08T23:22:24.239Z,22.91
2019-06-08T23:24:59.380Z,22.90
2019-06-08T23:27:32.033Z,22.89
2019-06-08T23:30:09.655Z,22.87
2019-06-08T23:32:40.508Z,22.86
2019-06-08T23:35:13.875Z,22.75
2019-06-08T23:37:47.804Z,22.79
2019-06-08T23:40:21.090Z,22.81
2019-06-08T23:42:54.186Z,22.86
2019-06-08T23:45:27.323Z,22.84
2019-06-08T23:48:01.161Z,22.90
2019-06-08T23:50:34.514Z,22.66
2019-06-08T23:53:10.583Z,22.70
2019-06-08T23:55:43.430Z,22.72
2019-06-08T23:58:17.480Z,22.73
